createdAt,value
2019-03-18T00:01:53.454Z,99.90
2019-03-18T00:04:22.528Z,99.90
2019-03-18T00:06:51.705Z,99.90
2019-03-18T00:09:20.791Z,99.90
2019-03-18T00:11:49.883Z,99.90
2019-03-18T00:14:19.055Z,99.90
2019-03-18T00:16:48.134Z,99.90
2019-03-18T00:19:17.288Z,99.90
2019-03-18T00:21:46.373Z,99.90
2019-03-18T00:24:15.448Z,99.90
2019-03-18T00:26:44.525Z,99.90
2019-03-18T00:29:13.610Z,99.90
2019-03-18T00:31:42.773Z,99.90
2019-03-18T00:34:11.860Z,99.90
2019-03-18T00:36:40.985Z,99.90
2019-03-18T00:39:13.078Z,99.90
2019-03-18T00:41:42.158Z,99.90
2019-03-18T00:44:11.214Z,99.90
2019-03-18T00:46:40.318Z,99.90
2019-03-18T00:49:09.404Z,99.90
2019-03-18T00:51:38.544Z,99.90
2019-03-18T00:54:07.606Z,99.90
2019-03-18T00:56:36.671Z,99.90
2019-03-18T00:59:05.777Z,99.90
2019-03-18T01:01:34.898Z,99.90
2019-03-18T01:04:05.664Z,99.90
2019-03-18T01:06:34.727Z,99.90
2019-03-18T01:09:04.766Z,99.90
2019-03-18T01:11:33.852Z,99.90
2019-03-18T01:14:02.936Z,99.90
2019-03-18T01:16:32.045Z,99.90
2019-03-18T01:19:01.148Z,99.90
2019-03-18T01:21:30.239Z,99.90
2019-03-18T01:23:59.417Z,99.90
2019-03-18T01:26:28.496Z,99.90
2019-03-18T01:28:57.553Z,99.90
2019-03-18T01:31:26.615Z,99.90
2019-03-18T01:33:55.794Z,99.90
2019-03-18T01:36:24.897Z,99.90
2019-03-18T01:38:53.994Z,99.90
2019-03-18T01:41:23.083Z,99.90
2019-03-18T01:43:52.150Z,99.90
2019-03-18T01:46:21.237Z,99.90
2019-03-18T01:48:50.403Z,99.90
2019-03-18T01:51:19.486Z,99.90
2019-03-18T01:53:48.584Z,99.90
2019-03-18T01:56:17.652Z,99.90
2019-03-18T01:58:46.950Z,99.90
2019-03-18T02:01:16.090Z,99.90
2019-03-18T02:03:45.263Z,99.90
2019-03-18T02:06:14.363Z,99.90
2019-03-18T02:08:43.463Z,99.90
2019-03-18T02:11:12.533Z,99.90
2019-03-18T02:13:41.693Z,99.90
2019-03-18T02:16:10.761Z,99.90
2019-03-18T02:18:39.828Z,99.90
2019-03-18T02:21:08.923Z,99.90
2019-03-18T02:23:37.975Z,99.90
2019-03-18T02:26:07.031Z,99.90
2019-03-18T02:28:36.168Z,99.90
2019-03-18T02:31:05.232Z,99.90
2019-03-18T02:33:34.306Z,99.90
2019-03-18T02:36:03.383Z,99.90
2019-03-18T02:38:32.477Z,99.90
2019-03-18T02:41:01.570Z,99.90
2019-03-18T02:43:30.656Z,99.90
2019-03-18T02:46:09.829Z,99.90
2019-03-18T02:48:30.512Z,99.90
2019-03-18T02:50:59.592Z,99.90
2019-03-18T02:53:28.643Z,99.90
2019-03-18T02:55:57.737Z,99.90
2019-03-18T02:58:26.818Z,99.90
2019-03-18T03:00:55.950Z,99.90
2019-03-18T03:03:25.020Z,99.90
2019-03-18T03:05:54.112Z,99.90
2019-03-18T03:08:23.324Z,99.90
2019-03-18T03:10:52.408Z,99.90
2019-03-18T03:13:21.525Z,99.90
2019-03-18T03:15:50.594Z,99.90
2019-03-18T03:18:19.665Z,99.90
2019-03-18T03:20:48.734Z,99.90
2019-03-18T03:23:17.824Z,99.90
2019-03-18T03:25:46.916Z,99.90
2019-03-18T03:28:15.987Z,99.90
2019-03-18T03:30:45.065Z,99.90
2019-03-18T03:33:14.147Z,99.90
2019-03-18T03:35:43.196Z,99.90
2019-03-18T03:38:12.389Z,99.90
2019-03-18T03:40:41.558Z,99.90
2019-03-18T03:43:10.729Z,99.90
2019-03-18T03:45:39.805Z,99.90
2019-03-18T03:48:08.879Z,99.90
2019-03-18T03:50:38.037Z,99.90
2019-03-18T03:53:07.111Z,99.90
2019-03-18T03:55:36.185Z,99.90
2019-03-18T03:58:05.254Z,99.90
2019-03-18T04:00:34.424Z,99.90
2019-03-18T04:03:03.509Z,99.90
2019-03-18T04:05:32.662Z,99.90
2019-03-18T04:08:01.819Z,99.90
2019-03-18T04:10:30.934Z,99.90
2019-03-18T04:13:00.054Z,99.90
2019-03-18T04:15:29.149Z,99.90
2019-03-18T04:17:58.234Z,99.90
2019-03-18T04:20:27.237Z,99.90
2019-03-18T04:22:56.294Z,99.90
2019-03-18T04:25:25.385Z,99.90
2019-03-18T04:27:54.485Z,99.90
2019-03-18T04:30:23.584Z,99.90
2019-03-18T04:32:52.634Z,99.90
2019-03-18T04:35:21.721Z,99.90
2019-03-18T04:37:50.790Z,99.90
2019-03-18T04:40:19.885Z,99.90
2019-03-18T04:42:48.963Z,99.90
2019-03-18T04:45:18.163Z,99.90
2019-03-18T04:47:47.264Z,99.90
2019-03-18T04:50:16.318Z,99.90
2019-03-18T04:52:45.385Z,99.90
2019-03-18T04:55:14.457Z,99.90
2019-03-18T04:57:43.527Z,99.90
2019-03-18T05:00:12.834Z,99.90
2019-03-18T05:02:41.916Z,99.90
2019-03-18T05:05:11.021Z,99.90
2019-03-18T05:07:40.190Z,99.90
2019-03-18T05:10:09.324Z,99.90
2019-03-18T05:12:38.315Z,99.90
2019-03-18T05:15:07.514Z,99.90
2019-03-18T05:17:36.599Z,99.90
2019-03-18T05:20:05.790Z,99.90
2019-03-18T05:22:34.864Z,99.90
2019-03-18T05:25:04.096Z,99.90
2019-03-18T05:27:33.274Z,99.90
2019-03-18T05:30:02.373Z,99.90
2019-03-18T05:32:31.419Z,99.90
2019-03-18T05:35:00.592Z,99.90
2019-03-18T05:37:29.640Z,99.90
2019-03-18T05:39:58.707Z,99.90
2019-03-18T05:42:27.782Z,99.90
2019-03-18T05:44:56.838Z,99.90
2019-03-18T05:47:38.276Z,99.90
2019-03-18T05:49:56.722Z,99.90
2019-03-18T05:52:25.786Z,99.90
2019-03-18T05:54:54.773Z,99.90
2019-03-18T05:57:26.049Z,99.90
2019-03-18T05:59:54.679Z,99.90
2019-03-18T06:02:23.659Z,99.90
2019-03-18T06:04:52.726Z,99.90
2019-03-18T06:07:23.231Z,99.90
2019-03-18T06:09:52.290Z,99.90
2019-03-18T06:12:21.388Z,99.90
2019-03-18T06:14:50.364Z,99.90
2019-03-18T06:17:19.535Z,99.90
2019-03-18T06:19:48.611Z,99.90
2019-03-18T06:22:17.684Z,99.90
2019-03-18T06:24:46.765Z,99.90
2019-03-18T06:27:15.841Z,99.90
2019-03-18T06:29:44.912Z,99.90
2019-03-18T06:32:14.099Z,99.90
2019-03-18T06:34:43.220Z,99.90
2019-03-18T06:37:12.306Z,99.90
2019-03-18T06:39:41.408Z,99.90
2019-03-18T06:42:10.522Z,99.90
2019-03-18T06:44:39.592Z,99.90
2019-03-18T06:47:08.688Z,99.90
2019-03-18T06:49:37.800Z,99.90
2019-03-18T06:52:06.803Z,99.90
2019-03-18T06:54:35.904Z,99.90
2019-03-18T06:57:04.990Z,99.90
2019-03-18T06:59:34.078Z,99.90
2019-03-18T07:02:03.193Z,99.90
2019-03-18T07:04:32.272Z,99.90
2019-03-18T07:07:01.464Z,99.90
2019-03-18T07:09:30.583Z,99.90
2019-03-18T07:11:59.647Z,99.90
2019-03-18T07:14:28.800Z,99.90
2019-03-18T07:16:57.872Z,99.90
2019-03-18T07:19:26.950Z,99.90
2019-03-18T07:21:56.077Z,99.90
2019-03-18T07:24:25.158Z,99.90
2019-03-18T07:26:54.246Z,99.90
2019-03-18T07:29:23.300Z,99.90
2019-03-18T07:31:52.440Z,99.90
2019-03-18T07:34:21.610Z,99.90
2019-03-18T07:36:50.698Z,99.90
2019-03-18T07:39:19.804Z,99.90
2019-03-18T07:41:48.911Z,99.90
2019-03-18T07:44:18.013Z,99.90
2019-03-18T07:46:47.161Z,99.90
2019-03-18T07:49:16.334Z,99.90
2019-03-18T07:51:45.430Z,99.90
2019-03-18T07:54:14.581Z,99.90
2019-03-18T07:56:43.666Z,99.90
2019-03-18T07:59:12.869Z,99.90
2019-03-18T08:01:41.997Z,99.90
2019-03-18T08:04:11.154Z,99.90
2019-03-18T08:06:40.242Z,99.90
2019-03-18T08:09:09.694Z,99.90
2019-03-18T08:11:38.824Z,99.90
2019-03-18T08:14:07.893Z,99.90
2019-03-18T08:16:36.980Z,99.90
2019-03-18T08:19:06.151Z,99.90
2019-03-18T08:21:35.221Z,99.90
2019-03-18T08:24:04.326Z,99.90
2019-03-18T08:26:33.443Z,99.90
2019-03-18T08:29:02.546Z,99.90
2019-03-18T08:31:31.614Z,99.90
2019-03-18T08:34:00.699Z,99.90
2019-03-18T08:36:29.801Z,99.90
2019-03-18T08:38:58.872Z,99.90
2019-03-18T08:41:28.078Z,99.90
2019-03-18T08:43:57.141Z,99.90
2019-03-18T08:46:26.305Z,99.90
2019-03-18T08:48:56.187Z,99.90
2019-03-18T08:51:25.596Z,99.90
2019-03-18T08:53:54.636Z,99.90
2019-03-18T08:56:23.779Z,99.90
2019-03-18T08:58:52.858Z,99.90
2019-03-18T09:01:21.911Z,99.90
2019-03-18T09:03:51.043Z,99.90
2019-03-18T09:06:20.105Z,99.90
2019-03-18T09:08:49.286Z,99.90
2019-03-18T09:11:18.435Z,99.90
2019-03-18T09:13:47.678Z,99.90
2019-03-18T09:16:16.883Z,99.90
2019-03-18T09:18:46.105Z,99.90
2019-03-18T09:21:15.159Z,99.90
2019-03-18T09:23:44.994Z,99.90
2019-03-18T09:26:14.210Z,99.90
2019-03-18T09:28:43.299Z,99.90
2019-03-18T09:31:12.404Z,99.90
2019-03-18T09:33:41.532Z,99.90
2019-03-18T09:36:10.617Z,99.90
2019-03-18T09:38:39.703Z,99.90
2019-03-18T09:41:08.764Z,99.90
2019-03-18T09:43:37.987Z,99.90
2019-03-18T09:46:07.139Z,99.90
2019-03-18T09:48:36.285Z,99.90
2019-03-18T09:51:05.411Z,99.90
2019-03-18T09:53:37.485Z,99.90
2019-03-18T09:56:05.415Z,99.90
2019-03-18T09:58:34.553Z,99.90
2019-03-18T10:01:03.702Z,99.90
2019-03-18T10:03:32.707Z,99.90
2019-03-18T10:06:01.827Z,99.90
2019-03-18T10:08:31.011Z,99.90
2019-03-18T10:11:00.088Z,99.90
2019-03-18T10:13:29.228Z,99.90
2019-03-18T10:15:58.374Z,99.90
2019-03-18T10:18:27.559Z,99.90
2019-03-18T10:20:56.699Z,99.90
2019-03-18T10:23:25.851Z,99.90
2019-03-18T10:25:54.993Z,99.90
2019-03-18T10:28:24.075Z,99.90
2019-03-18T10:30:53.239Z,99.90
2019-03-18T10:33:22.323Z,99.90
2019-03-18T10:35:54.034Z,99.90
2019-03-18T10:38:22.179Z,99.90
2019-03-18T10:40:51.253Z,99.90
2019-03-18T10:43:20.323Z,99.90
2019-03-18T10:45:49.471Z,99.90
2019-03-18T10:48:18.517Z,99.90
2019-03-18T10:50:47.612Z,99.90
2019-03-18T10:53:16.704Z,99.90
2019-03-18T10:55:45.832Z,99.90
2019-03-18T10:58:17.878Z,99.90
2019-03-18T11:00:45.753Z,99.90
2019-03-18T11:03:14.813Z,99.90
2019-03-18T11:05:43.895Z,99.90
2019-03-18T11:08:12.976Z,99.90
2019-03-18T11:10:42.069Z,99.90
2019-03-18T11:13:11.242Z,99.90
2019-03-18T11:15:40.311Z,99.90
2019-03-18T11:18:11.003Z,99.90
2019-03-18T11:20:40.091Z,99.90
2019-03-18T11:23:09.165Z,99.90
2019-03-18T11:25:38.321Z,99.90
2019-03-18T11:28:07.419Z,99.90
2019-03-18T11:30:36.492Z,99.90
2019-03-18T11:33:06.169Z,99.90
2019-03-18T11:35:35.260Z,99.90
2019-03-18T11:38:04.343Z,99.90
2019-03-18T11:40:33.493Z,99.90
2019-03-18T11:43:02.576Z,99.90
2019-03-18T11:45:31.639Z,99.90
2019-03-18T11:48:00.719Z,99.90
2019-03-18T11:50:29.879Z,99.90
2019-03-18T11:52:58.964Z,99.90
2019-03-18T11:55:28.181Z,99.90
2019-03-18T11:57:57.341Z,99.90
2019-03-18T12:00:26.591Z,99.90
2019-03-18T12:02:56.970Z,99.90
2019-03-18T12:05:26.053Z,99.90
2019-03-18T12:07:55.105Z,99.90
2019-03-18T12:10:25.957Z,99.90
2019-03-18T12:12:55.155Z,99.90
2019-03-18T12:15:24.343Z,99.90
2019-03-18T12:17:53.471Z,99.90
2019-03-18T12:20:25.426Z,99.90
2019-03-18T12:22:53.437Z,92.70
2019-03-18T12:25:22.562Z,96.00
2019-03-18T12:27:51.721Z,95.30
2019-03-18T12:30:20.935Z,95.50
2019-03-18T12:32:50.011Z,97.70
2019-03-18T12:35:19.087Z,99.40
2019-03-18T12:37:48.281Z,99.40
2019-03-18T12:40:17.408Z,99.90
2019-03-18T12:42:46.635Z,99.90
2019-03-18T12:45:15.732Z,99.90
2019-03-18T12:47:44.880Z,99.90
2019-03-18T12:50:15.420Z,99.90
2019-03-18T12:52:44.654Z,99.90
2019-03-18T12:55:14.079Z,99.90
2019-03-18T12:57:43.268Z,99.90
2019-03-18T13:00:15.678Z,99.90
2019-03-18T13:02:44.777Z,99.90
2019-03-18T13:05:13.974Z,99.90
2019-03-18T13:07:43.046Z,99.90
2019-03-18T13:10:13.302Z,99.90
2019-03-18T13:12:42.387Z,99.90
2019-03-18T13:15:13.181Z,99.90
2019-03-18T13:17:43.906Z,99.90
2019-03-18T13:20:13.495Z,99.90
2019-03-18T13:22:42.690Z,99.90
2019-03-18T13:25:11.785Z,99.90
2019-03-18T13:27:41.014Z,99.90
2019-03-18T13:30:15.295Z,99.90
2019-03-18T13:32:43.596Z,99.90
2019-03-18T13:35:12.774Z,99.90
2019-03-18T13:37:42.138Z,99.90
2019-03-18T13:40:11.262Z,99.90
2019-03-18T13:42:40.354Z,99.90
2019-03-18T13:45:11.972Z,99.90
2019-03-18T13:47:41.074Z,99.90
2019-03-18T13:50:11.428Z,99.90
2019-03-18T13:52:40.512Z,99.90
2019-03-18T13:55:09.698Z,98.20
2019-03-18T13:57:38.791Z,96.10
2019-03-18T14:00:10.022Z,98.30
2019-03-18T14:02:39.128Z,94.80
2019-03-18T14:05:08.744Z,94.40
2019-03-18T14:07:37.907Z,99.90
2019-03-18T14:10:08.657Z,99.90
2019-03-18T14:12:37.781Z,99.90
2019-03-18T14:15:08.371Z,99.90
2019-03-18T14:17:37.549Z,99.90
2019-03-18T14:20:07.197Z,99.90
2019-03-18T14:22:36.339Z,99.90
2019-03-18T14:25:05.915Z,99.90
2019-03-18T14:27:35.007Z,99.90
2019-03-18T14:30:04.429Z,99.90
2019-03-18T14:32:34.363Z,99.90
2019-03-18T14:35:04.222Z,99.90
2019-03-18T14:37:33.403Z,99.90
2019-03-18T14:40:02.494Z,99.90
2019-03-18T14:42:31.584Z,99.90
2019-03-18T14:45:00.646Z,99.90
2019-03-18T14:47:29.709Z,99.90
2019-03-18T14:49:58.709Z,99.90
2019-03-18T14:52:27.829Z,99.90
2019-03-18T14:54:56.910Z,99.90
2019-03-18T14:57:25.993Z,99.90
2019-03-18T14:59:55.075Z,99.90
2019-03-18T15:02:24.157Z,99.90
2019-03-18T15:04:54.804Z,99.90
2019-03-18T15:07:23.864Z,99.90
2019-03-18T15:09:52.861Z,99.90
2019-03-18T15:12:21.956Z,99.90
2019-03-18T15:14:51.055Z,99.90
2019-03-18T15:17:20.053Z,99.90
2019-03-18T15:19:49.143Z,99.90
2019-03-18T15:22:18.311Z,99.90
2019-03-18T15:24:47.473Z,99.90
2019-03-18T15:27:16.567Z,99.90
2019-03-18T15:29:45.656Z,99.90
2019-03-18T15:32:14.761Z,99.90
2019-03-18T15:34:43.827Z,99.90
2019-03-18T15:37:13.069Z,99.90
2019-03-18T15:39:42.154Z,99.90
2019-03-18T15:42:11.215Z,99.90
2019-03-18T15:44:40.320Z,99.90
2019-03-18T15:47:09.467Z,99.90
2019-03-18T15:49:38.542Z,99.90
2019-03-18T15:52:11.324Z,99.90
2019-03-18T15:54:38.437Z,99.90
2019-03-18T15:57:07.531Z,99.90
2019-03-18T15:59:36.745Z,99.90
2019-03-18T16:02:05.890Z,99.90
2019-03-18T16:04:34.975Z,99.90
2019-03-18T16:07:04.156Z,99.90
2019-03-18T16:09:33.229Z,99.90
2019-03-18T16:12:02.335Z,99.90
2019-03-18T16:14:31.439Z,99.90
2019-03-18T16:17:02.220Z,99.90
2019-03-18T16:19:31.319Z,99.90
2019-03-18T16:22:00.439Z,99.90
2019-03-18T16:24:29.623Z,99.90
2019-03-18T16:26:58.638Z,99.90
2019-03-18T16:29:27.717Z,99.90
2019-03-18T16:31:56.875Z,99.90
2019-03-18T16:34:25.984Z,99.90
2019-03-18T16:36:55.067Z,99.90
2019-03-18T16:39:24.091Z,99.90
2019-03-18T16:41:54.363Z,99.90
2019-03-18T16:44:23.700Z,99.90
2019-03-18T16:47:11.907Z,99.90
2019-03-18T16:49:40.989Z,99.90
2019-03-18T16:52:10.088Z,99.90
2019-03-18T16:54:39.183Z,99.90
2019-03-18T16:57:08.308Z,99.90
2019-03-18T16:59:37.399Z,99.90
2019-03-18T17:02:06.483Z,99.90
2019-03-18T17:04:35.618Z,99.90
2019-03-18T17:07:04.707Z,99.90
2019-03-18T17:09:33.843Z,99.90
2019-03-18T17:12:03.004Z,99.90
2019-03-18T17:14:32.166Z,99.90
2019-03-18T17:17:01.263Z,99.90
2019-03-18T17:19:30.378Z,99.90
2019-03-18T17:21:59.391Z,99.90
2019-03-18T17:24:28.499Z,99.90
2019-03-18T17:26:57.611Z,99.90
2019-03-18T17:29:26.687Z,99.90
2019-03-18T17:31:55.875Z,99.90
2019-03-18T17:34:24.965Z,99.90
2019-03-18T17:36:54.058Z,99.90
2019-03-18T17:39:23.149Z,99.90
2019-03-18T17:41:52.241Z,99.90
2019-03-18T17:44:21.347Z,99.90
2019-03-18T17:46:50.415Z,99.90
2019-03-18T17:49:19.598Z,99.90
2019-03-18T17:51:48.686Z,99.90
2019-03-18T17:54:17.861Z,99.90
2019-03-18T17:56:46.901Z,99.90
2019-03-18T17:59:15.977Z,99.90
2019-03-18T18:01:45.141Z,99.90
2019-03-18T18:04:14.231Z,99.90
2019-03-18T18:06:43.395Z,99.90
2019-03-18T18:09:12.527Z,99.90
2019-03-18T18:11:43.124Z,99.90
2019-03-18T18:14:12.486Z,99.90
2019-03-18T18:16:41.566Z,99.90
2019-03-18T18:19:11.159Z,99.90
2019-03-18T18:21:40.355Z,99.90
2019-03-18T18:24:09.443Z,99.90
2019-03-18T18:26:38.496Z,99.90
2019-03-18T18:29:07.617Z,99.90
2019-03-18T18:31:36.799Z,99.90
2019-03-18T18:34:06.009Z,99.90
2019-03-18T18:36:35.165Z,99.90
2019-03-18T18:39:05.946Z,99.90
2019-03-18T18:41:35.054Z,99.90
2019-03-18T18:44:04.224Z,99.90
2019-03-18T18:46:33.322Z,99.90
2019-03-18T18:49:02.510Z,99.90
2019-03-18T18:51:31.637Z,99.90
2019-03-18T18:54:00.741Z,99.90
2019-03-18T18:56:29.918Z,99.90
2019-03-18T18:58:59.029Z,99.90
2019-03-18T19:01:28.147Z,99.90
2019-03-18T19:03:57.297Z,99.90
2019-03-18T19:06:26.451Z,99.90
2019-03-18T19:08:55.689Z,99.90
2019-03-18T19:11:24.772Z,99.90
2019-03-18T19:13:55.131Z,99.90
2019-03-18T19:16:24.235Z,99.90
2019-03-18T19:18:53.338Z,99.90
2019-03-18T19:21:22.449Z,99.90
2019-03-18T19:23:51.608Z,99.90
2019-03-18T19:26:20.701Z,99.90
2019-03-18T19:28:49.768Z,99.90
2019-03-18T19:31:18.865Z,99.90
2019-03-18T19:33:48.301Z,99.90
2019-03-18T19:36:17.354Z,99.90
2019-03-18T19:38:46.499Z,99.90
2019-03-18T19:41:15.599Z,99.90
2019-03-18T19:43:44.682Z,99.90
2019-03-18T19:46:13.799Z,99.90
2019-03-18T19:48:43.049Z,99.90
2019-03-18T19:51:12.244Z,99.90
2019-03-18T19:53:49.061Z,99.90
2019-03-18T19:56:13.515Z,99.90
2019-03-18T19:58:42.621Z,99.90
2019-03-18T20:01:11.730Z,99.90
2019-03-18T20:03:40.842Z,99.90
2019-03-18T20:06:10.016Z,99.90
2019-03-18T20:08:39.086Z,99.90
2019-03-18T20:11:08.182Z,99.90
2019-03-18T20:13:37.292Z,99.90
2019-03-18T20:16:06.518Z,99.90
2019-03-18T20:18:35.598Z,99.90
2019-03-18T20:21:04.699Z,99.90
2019-03-18T20:23:33.836Z,99.90
2019-03-18T20:26:02.909Z,99.90
2019-03-18T20:28:32.178Z,99.90
2019-03-18T20:31:01.266Z,99.90
2019-03-18T20:33:30.424Z,99.90
2019-03-18T20:35:59.541Z,99.90
2019-03-18T20:38:28.631Z,99.90
2019-03-18T20:40:57.740Z,99.90
2019-03-18T20:43:26.817Z,99.90
2019-03-18T20:45:55.939Z,99.90
2019-03-18T20:48:25.050Z,99.90
2019-03-18T20:50:56.564Z,99.90
2019-03-18T20:53:24.948Z,99.90
2019-03-18T20:55:54.056Z,99.90
2019-03-18T20:58:23.162Z,99.90
2019-03-18T21:00:53.105Z,99.90
2019-03-18T21:03:22.329Z,99.90
2019-03-18T21:05:51.449Z,99.90
2019-03-18T21:08:20.536Z,99.90
2019-03-18T21:10:49.664Z,99.90
2019-03-18T21:13:18.778Z,99.90
2019-03-18T21:15:47.890Z,99.90
2019-03-18T21:18:16.975Z,99.90
2019-03-18T21:20:46.044Z,99.90
2019-03-18T21:23:15.167Z,99.90
2019-03-18T21:25:44.264Z,99.90
2019-03-18T21:28:13.358Z,99.90
2019-03-18T21:30:42.473Z,99.90
2019-03-18T21:33:11.629Z,99.90
2019-03-18T21:35:40.816Z,99.90
2019-03-18T21:38:09.980Z,99.90
2019-03-18T21:40:39.062Z,99.90
2019-03-18T21:43:08.135Z,99.90
2019-03-18T21:45:37.238Z,99.90
2019-03-18T21:48:06.309Z,99.90
2019-03-18T21:50:35.384Z,99.90
2019-03-18T21:53:04.483Z,99.90
2019-03-18T21:55:33.576Z,99.90
2019-03-18T21:58:02.738Z,99.90
2019-03-18T22:00:31.813Z,99.90
2019-03-18T22:03:00.918Z,99.90
2019-03-18T22:05:29.992Z,99.90
2019-03-18T22:07:59.080Z,99.90
2019-03-18T22:10:28.143Z,99.90
2019-03-18T22:12:57.227Z,99.90
2019-03-18T22:15:26.354Z,99.90
2019-03-18T22:17:55.452Z,99.90
2019-03-18T22:20:24.599Z,99.90
2019-03-18T22:22:53.753Z,99.90
2019-03-18T22:25:22.823Z,99.90
2019-03-18T22:27:51.938Z,99.90
2019-03-18T22:30:21.321Z,99.90
2019-03-18T22:32:50.423Z,99.90
2019-03-18T22:35:19.575Z,99.90
2019-03-18T22:37:48.711Z,99.90
2019-03-18T22:40:17.915Z,99.90
2019-03-18T22:42:46.986Z,99.90
2019-03-18T22:45:16.084Z,99.90
2019-03-18T22:47:45.171Z,99.90
2019-03-18T22:50:14.543Z,99.90
2019-03-18T22:52:43.618Z,99.90
2019-03-18T22:55:12.731Z,99.90
2019-03-18T22:57:41.843Z,99.90
2019-03-18T23:00:51.520Z,99.90
2019-03-18T23:03:22.980Z,99.90
2019-03-18T23:05:51.444Z,99.90
2019-03-18T23:08:20.466Z,99.90
2019-03-18T23:10:49.544Z,99.90
2019-03-18T23:13:18.633Z,99.90
2019-03-18T23:15:47.735Z,99.90
2019-03-18T23:18:16.812Z,99.90
2019-03-18T23:20:45.889Z,99.90
2019-03-18T23:23:14.993Z,99.90
2019-03-18T23:25:44.119Z,99.90
2019-03-18T23:28:13.204Z,99.90
2019-03-18T23:30:42.289Z,99.90
2019-03-18T23:33:11.365Z,99.90
2019-03-18T23:35:40.442Z,99.90
2019-03-18T23:38:09.537Z,99.90
2019-03-18T23:40:38.596Z,99.90
2019-03-18T23:43:07.704Z,99.90
2019-03-18T23:45:36.788Z,99.90
2019-03-18T23:48:06.128Z,99.90
2019-03-18T23:50:35.297Z,99.90
2019-03-18T23:53:04.379Z,99.90
2019-03-18T23:55:33.457Z,99.90
2019-03-18T23:58:02.621Z,99.90
